Time;durP1;ratioP1;P1;durP2;ratioP2;P2;SDS_P1;SDS_P2;PMS_P1;PMS_P2;Temp;Humidity;BMP_temperature;BMP_pressure;BME280_temperature;BME280_humidity;BME280_pressure;Samples;Min_cycle;Max_cycle;Signal;HPM_P1;HPM_P2
2021/06/26 00:01:59;;;;;;;10.93;9.60;;;14.90;99.90;;;;;;5111814;28;20200;-70
2021/06/26 00:04:25;;;;;;;13.40;10.33;;;14.90;99.90;;;;;;5112271;28;20262;-70
2021/06/26 00:06:51;;;;;;;10.83;9.50;;;14.90;99.90;;;;;;5111068;28;20195;-70
2021/06/26 00:09:16;;;;;;;12.13;9.97;;;14.90;99.90;;;;;;5111135;28;20201;-70
2021/06/26 00:11:42;;;;;;;11.43;9.57;;;14.90;99.90;;;;;;5110957;28;20630;-70
2021/06/26 00:14:07;;;;;;;11.63;10.30;;;14.80;99.90;;;;;;5111146;28;20231;-70
2021/06/26 00:16:34;;;;;;;11.50;9.53;;;14.80;99.90;;;;;;5110857;28;20206;-70
2021/06/26 00:19:00;;;;;;;12.27;9.57;;;14.80;99.90;;;;;;5110996;28;20605;-69
2021/06/26 00:21:25;;;;;;;11.13;9.50;;;14.70;99.90;;;;;;5110300;28;20200;-69
2021/06/26 00:23:51;;;;;;;14.20;10.13;;;14.70;99.90;;;;;;5092641;28;20223;-69
2021/06/26 00:26:17;;;;;;;10.93;9.37;;;14.80;99.90;;;;;;5115181;28;20825;-69
2021/06/26 00:28:43;;;;;;;14.27;10.07;;;14.70;99.90;;;;;;5115110;28;20171;-69
2021/06/26 00:31:09;;;;;;;13.23;9.27;;;14.70;99.90;;;;;;5114282;28;20179;-69
2021/06/26 00:33:34;;;;;;;10.37;9.20;;;14.60;99.90;;;;;;5114710;28;20195;-70
2021/06/26 00:36:00;;;;;;;11.83;9.30;;;14.60;99.90;;;;;;5114586;28;20195;-69
2021/06/26 00:38:25;;;;;;;10.23;9.07;;;14.60;99.90;;;;;;5114833;28;20254;-70
2021/06/26 00:40:51;;;;;;;11.67;8.80;;;14.60;99.90;;;;;;5114573;28;20644;-69
2021/06/26 00:43:18;;;;;;;17.43;14.37;;;14.50;99.90;;;;;;5114902;28;20179;-69
2021/06/26 00:45:44;;;;;;;9.90;8.20;;;14.50;99.90;;;;;;5114541;28;20246;-69
2021/06/26 00:48:09;;;;;;;10.63;9.23;;;14.50;99.90;;;;;;5114520;28;20565;-69
2021/06/26 00:50:35;;;;;;;9.93;8.93;;;14.50;99.90;;;;;;5114095;28;20168;-70
2021/06/26 00:53:00;;;;;;;10.07;8.60;;;14.40;99.90;;;;;;5114385;28;20584;-69
2021/06/26 00:55:26;;;;;;;9.80;8.53;;;14.40;99.90;;;;;;5114247;28;20640;-69
2021/06/26 00:57:56;;;;;;;10.47;8.80;;;14.40;99.90;;;;;;5113814;28;20278;-69
2021/06/26 01:00:23;;;;;;;10.20;9.13;;;14.40;99.90;;;;;;5113919;28;20164;-70
2021/06/26 01:02:49;;;;;;;13.30;8.97;;;14.30;99.90;;;;;;5114454;28;20196;-69
2021/06/26 01:05:15;;;;;;;9.53;8.00;;;14.30;99.90;;;;;;5114263;28;20259;-69
2021/06/26 01:07:40;;;;;;;9.40;8.43;;;14.30;99.90;;;;;;5113876;28;20614;-70
2021/06/26 01:10:07;;;;;;;11.00;8.67;;;14.30;99.90;;;;;;5113872;28;20172;-70
2021/06/26 01:12:33;;;;;;;9.57;8.47;;;14.20;99.90;;;;;;5095735;28;20206;-70
2021/06/26 01:14:58;;;;;;;9.60;8.70;;;14.20;99.90;;;;;;5114609;28;20191;-70
2021/06/26 01:17:24;;;;;;;10.23;9.13;;;14.20;99.90;;;;;;5113710;28;20195;-70
2021/06/26 01:19:49;;;;;;;10.87;8.37;;;14.20;99.90;;;;;;5113811;28;20178;-70
2021/06/26 01:22:20;;;;;;;10.57;8.77;;;14.20;99.90;;;;;;5113602;28;20286;-70
2021/06/26 01:24:46;;;;;;;10.17;9.07;;;14.20;99.90;;;;;;5113712;28;20164;-70
2021/06/26 01:27:12;;;;;;;10.47;9.30;;;14.20;99.90;;;;;;5113583;28;20664;-70
2021/06/26 01:29:37;;;;;;;11.50;8.97;;;14.20;99.90;;;;;;5113526;28;20175;-70
2021/06/26 01:32:07;;;;;;;11.37;9.27;;;14.20;99.90;;;;;;5113040;28;20249;-70
2021/06/26 01:34:32;;;;;;;10.30;9.30;;;14.10;99.90;;;;;;5113457;28;20267;-70
2021/06/26 01:36:58;;;;;;;11.63;10.07;;;14.10;99.90;;;;;;5112655;28;20286;-70
2021/06/26 01:39:24;;;;;;;10.73;9.10;;;14.10;99.90;;;;;;5114317;28;20175;-70
2021/06/26 01:41:49;;;;;;;12.67;9.87;;;14.10;99.90;;;;;;5113836;28;20191;-70
2021/06/26 01:44:15;;;;;;;10.97;9.40;;;14.10;99.90;;;;;;5113588;28;20171;-70
2021/06/26 01:46:40;;;;;;;13.37;10.30;;;14.00;99.90;;;;;;5113326;28;20203;-70
2021/06/26 01:49:11;;;;;;;11.23;9.40;;;13.90;99.90;;;;;;5113641;28;20251;-70
2021/06/26 01:51:38;;;;;;;12.17;10.57;;;13.90;99.90;;;;;;5113135;28;20172;-70
2021/06/26 01:54:08;;;;;;;11.40;10.20;;;13.90;99.90;;;;;;5113308;28;20588;-70
2021/06/26 01:56:35;;;;;;;12.43;10.33;;;14.00;99.90;;;;;;5112798;28;20192;-70
2021/06/26 01:59:01;;;;;;;11.70;10.50;;;13.90;99.90;;;;;;5113302;28;20171;-70
2021/06/26 02:01:26;;;;;;;12.73;10.33;;;13.90;99.90;;;;;;5112697;28;20195;-70
2021/06/26 02:03:52;;;;;;;12.60;10.13;;;13.90;99.90;;;;;;5112936;28;20246;-70
2021/06/26 02:06:18;;;;;;;12.67;10.17;;;13.90;99.90;;;;;;5112750;28;20188;-71
2021/06/26 02:08:43;;;;;;;12.00;10.40;;;13.90;99.90;;;;;;5112930;28;20202;-71
2021/06/26 02:11:09;;;;;;;13.00;11.17;;;13.90;99.90;;;;;;5112510;28;20596;-71
2021/06/26 02:13:34;;;;;;;13.97;11.20;;;13.90;99.90;;;;;;5112866;28;20172;-70
2021/06/26 02:16:00;;;;;;;13.70;11.80;;;13.90;99.90;;;;;;5112598;28;20183;-70
2021/06/26 02:18:26;;;;;;;14.97;11.90;;;13.80;99.90;;;;;;5112348;28;20164;-70
2021/06/26 02:20:51;;;;;;;11.50;10.13;;;13.80;99.90;;;;;;5112159;28;20216;-70
2021/06/26 02:23:17;;;;;;;13.93;11.73;;;13.80;99.90;;;;;;5112675;28;20188;-70
2021/06/26 02:25:42;;;;;;;13.67;11.40;;;13.80;99.90;;;;;;5095903;28;20170;-70
2021/06/26 02:28:08;;;;;;;13.17;10.97;;;13.80;99.90;;;;;;5113213;28;20176;-70
2021/06/26 02:30:33;;;;;;;14.30;11.87;;;13.80;99.90;;;;;;5112368;28;20168;-70
2021/06/26 02:32:59;;;;;;;13.60;11.20;;;13.80;99.90;;;;;;5112378;28;20193;-70
2021/06/26 02:35:24;;;;;;;15.90;11.70;;;13.80;99.90;;;;;;5112383;28;20258;-70
2021/06/26 02:37:50;;;;;;;12.57;11.23;;;13.80;99.90;;;;;;5112115;28;20188;-70
2021/06/26 02:40:16;;;;;;;12.40;10.97;;;13.80;99.90;;;;;;5112069;28;20186;-70
2021/06/26 02:42:41;;;;;;;20.00;12.50;;;13.80;99.90;;;;;;5111875;28;20206;-70
2021/06/26 02:45:08;;;;;;;14.13;12.33;;;13.80;99.90;;;;;;5112157;28;20163;-70
2021/06/26 02:47:34;;;;;;;14.80;13.23;;;13.80;99.90;;;;;;5111537;28;20199;-70
2021/06/26 02:49:59;;;;;;;12.73;11.20;;;13.80;99.90;;;;;;5112100;28;20647;-70
2021/06/26 02:52:25;;;;;;;15.37;12.03;;;13.80;99.90;;;;;;5112083;28;20176;-70
2021/06/26 02:54:50;;;;;;;14.50;11.80;;;13.90;99.90;;;;;;5112153;28;20176;-70
2021/06/26 02:57:16;;;;;;;15.03;13.03;;;13.90;99.90;;;;;;5111889;28;20257;-70
2021/06/26 02:59:44;;;;;;;13.13;11.73;;;14.00;99.90;;;;;;5111930;28;20612;-70
2021/06/26 03:02:10;;;;;;;14.63;12.50;;;14.00;99.90;;;;;;5111681;28;20570;-70
2021/06/26 03:04:35;;;;;;;15.00;12.90;;;14.00;99.90;;;;;;5093511;28;20178;-70
2021/06/26 03:07:01;;;;;;;18.57;12.60;;;14.00;99.90;;;;;;5111728;28;20195;-69
2021/06/26 03:09:27;;;;;;;13.87;12.17;;;14.00;99.90;;;;;;5111762;28;20168;-69
2021/06/26 03:11:52;;;;;;;15.23;11.60;;;14.00;99.90;;;;;;5111420;28;20263;-69
2021/06/26 03:14:18;;;;;;;13.77;11.40;;;14.10;99.90;;;;;;5111700;28;20516;-69
2021/06/26 03:16:43;;;;;;;13.03;11.57;;;14.10;99.90;;;;;;5111693;28;20194;-69
2021/06/26 03:19:09;;;;;;;15.53;11.43;;;14.10;99.90;;;;;;5111454;28;20254;-69
2021/06/26 03:21:34;;;;;;;12.80;11.47;;;14.20;99.90;;;;;;5111069;28;20249;-69
2021/06/26 03:24:00;;;;;;;12.83;11.53;;;14.20;99.90;;;;;;5111283;28;20647;-68
2021/06/26 03:26:25;;;;;;;13.23;11.83;;;14.20;99.90;;;;;;5109034;28;20271;-69
2021/06/26 03:28:51;;;;;;;13.97;12.30;;;14.30;99.90;;;;;;5111422;28;20189;-69
2021/06/26 03:31:17;;;;;;;13.57;11.93;;;14.30;99.90;;;;;;5111057;28;20181;-69
2021/06/26 03:33:42;;;;;;;12.17;10.93;;;14.40;99.90;;;;;;5111352;28;20216;-69
2021/06/26 03:36:09;;;;;;;12.73;11.20;;;14.40;99.90;;;;;;5111917;28;20188;-69
2021/06/26 03:38:34;;;;;;;14.60;11.77;;;14.50;99.90;;;;;;5112127;28;20168;-69
2021/06/26 03:41:00;;;;;;;12.63;10.27;;;14.90;99.90;;;;;;5110858;28;20258;-69
2021/06/26 03:43:25;;;;;;;12.17;10.83;;;15.80;99.90;;;;;;5111148;28;20256;-69
2021/06/26 03:45:51;;;;;;;11.43;10.30;;;15.80;99.90;;;;;;5110933;28;20261;-69
2021/06/26 03:48:17;;;;;;;11.77;10.50;;;15.70;99.90;;;;;;5111158;28;20559;-69
2021/06/26 03:50:42;;;;;;;12.57;10.17;;;15.60;99.90;;;;;;5110750;28;20625;-69
2021/06/26 03:53:10;;;;;;;13.80;10.23;;;15.60;99.90;;;;;;5111097;28;20257;-69
2021/06/26 03:55:35;;;;;;;12.47;9.40;;;16.40;99.90;;;;;;5110931;28;20199;-69
2021/06/26 03:58:01;;;;;;;10.03;9.00;;;17.20;99.90;;;;;;5110546;28;20200;-69
2021/06/26 04:00:26;;;;;;;10.63;9.40;;;18.20;99.90;;;;;;5113569;28;20184;-69
2021/06/26 04:02:52;;;;;;;11.10;9.33;;;19.40;99.90;;;;;;5115306;28;20573;-69
2021/06/26 04:05:17;;;;;;;10.80;9.03;;;20.10;99.90;;;;;;5115697;28;20168;-69
2021/06/26 04:07:43;;;;;;;10.27;9.17;;;20.60;99.90;;;;;;5115560;28;20180;-69
2021/06/26 04:10:09;;;;;;;10.20;9.03;;;21.00;99.90;;;;;;5115272;28;20251;-69
2021/06/26 04:12:34;;;;;;;9.77;8.00;;;21.20;99.90;;;;;;5115043;28;20228;-69
2021/06/26 04:15:00;;;;;;;9.13;7.73;;;21.20;99.90;;;;;;5115238;28;20171;-69
2021/06/26 04:17:25;;;;;;;9.40;7.60;;;21.30;99.90;;;;;;5114802;28;20187;-70
2021/06/26 04:19:51;;;;;;;9.37;8.40;;;20.40;99.90;;;;;;5114908;28;20178;-70
2021/06/26 04:22:16;;;;;;;9.80;8.50;;;19.10;99.90;;;;;;5114962;28;20231;-70
2021/06/26 04:24:42;;;;;;;11.63;9.20;;;18.30;99.90;;;;;;5096798;28;20168;-70
2021/06/26 04:27:08;;;;;;;10.53;9.03;;;17.80;99.90;;;;;;5115270;28;20195;-72
2021/06/26 04:29:33;;;;;;;10.60;8.80;;;17.50;99.90;;;;;;5115801;28;20176;-72
2021/06/26 04:31:59;;;;;;;10.70;9.13;;;17.40;99.90;;;;;;5114428;28;20168;-69
2021/06/26 04:34:25;;;;;;;9.60;8.60;;;17.20;99.90;;;;;;5114673;28;20225;-68
2021/06/26 04:36:51;;;;;;;10.27;9.27;;;17.20;99.90;;;;;;5114596;28;20196;-69
2021/06/26 04:39:17;;;;;;;9.93;8.93;;;17.20;99.90;;;;;;5096469;28;20264;-71
2021/06/26 04:41:43;;;;;;;11.87;9.70;;;17.20;99.90;;;;;;5114181;28;20205;-71
2021/06/26 04:44:09;;;;;;;11.40;9.27;;;17.20;99.90;;;;;;5115043;28;20225;-71
2021/06/26 04:46:36;;;;;;;9.70;8.77;;;17.30;99.90;;;;;;5114144;28;20211;-69
2021/06/26 04:49:02;;;;;;;10.40;8.77;;;17.20;99.90;;;;;;5114385;28;20258;-71
2021/06/26 04:51:27;;;;;;;11.30;8.73;;;17.20;99.90;;;;;;5114451;28;20211;-70
2021/06/26 04:53:53;;;;;;;9.20;8.40;;;17.40;99.90;;;;;;5114537;28;20198;-70
2021/06/26 04:56:18;;;;;;;10.23;9.07;;;17.40;99.90;;;;;;5114266;28;20191;-70
2021/06/26 04:58:44;;;;;;;10.70;8.00;;;17.40;99.90;;;;;;5113598;28;20876;-70
2021/06/26 05:01:10;;;;;;;9.40;8.27;;;17.50;99.90;;;;;;5113660;28;20247;-70
2021/06/26 05:03:38;;;;;;;10.00;8.23;;;17.50;99.90;;;;;;5114091;28;20194;-70
2021/06/26 05:06:04;;;;;;;10.10;8.57;;;17.50;99.90;;;;;;5114130;28;20199;-69
2021/06/26 05:08:30;;;;;;;11.70;8.43;;;17.70;99.90;;;;;;5114634;28;20220;-70
2021/06/26 05:10:55;;;;;;;8.17;7.33;;;17.90;99.90;;;;;;5112773;28;20542;-70
2021/06/26 05:13:21;;;;;;;9.13;7.43;;;18.00;99.90;;;;;;5113914;28;20524;-70
2021/06/26 05:15:46;;;;;;;8.83;7.23;;;18.20;99.90;;;;;;5114154;28;20195;-70
2021/06/26 05:18:12;;;;;;;7.67;6.97;;;18.40;99.90;;;;;;5114058;28;20544;-70
2021/06/26 05:20:39;;;;;;;7.97;6.77;;;18.30;99.90;;;;;;5113789;28;20643;-70
2021/06/26 05:23:14;;;;;;;6.70;6.07;;;18.50;99.90;;;;;;5113965;28;20204;-70
2021/06/26 05:25:39;;;;;;;10.67;6.00;;;18.70;99.90;;;;;;5113705;28;20171;-70
2021/06/26 05:28:05;;;;;;;7.10;5.83;;;18.80;99.90;;;;;;5114123;28;20228;-71
2021/06/26 05:30:31;;;;;;;6.57;5.93;;;19.20;99.90;;;;;;5115860;28;20530;-70
2021/06/26 05:32:56;;;;;;;6.97;6.23;;;19.30;99.90;;;;;;5114837;28;20199;-71
2021/06/26 05:35:22;;;;;;;7.77;6.93;;;19.40;99.90;;;;;;5113753;28;20172;-70
2021/06/26 05:37:47;;;;;;;7.57;6.40;;;19.30;99.90;;;;;;5113304;28;20241;-70
2021/06/26 05:40:13;;;;;;;14.10;7.07;;;19.30;99.90;;;;;;5113349;28;20195;-70
2021/06/26 05:42:39;;;;;;;8.37;7.23;;;19.40;99.90;;;;;;5114560;28;20200;-71
2021/06/26 05:45:05;;;;;;;8.17;7.07;;;19.00;99.90;;;;;;5114216;28;20160;-71
2021/06/26 05:47:31;;;;;;;8.07;7.03;;;18.90;99.90;;;;;;5097752;22;20224;-78
2021/06/26 05:49:57;;;;;;;8.07;7.27;;;19.00;99.90;;;;;;5096765;28;20176;-78
2021/06/26 05:52:22;;;;;;;8.20;7.23;;;18.90;99.90;;;;;;5096717;28;20176;-78
2021/06/26 05:54:48;;;;;;;6.30;5.70;;;19.00;99.90;;;;;;5098509;28;20251;-78
2021/06/26 05:57:13;;;;;;;8.33;6.43;;;18.90;99.90;;;;;;5093621;28;20683;-76
2021/06/26 05:59:39;;;;;;;6.53;5.47;;;19.10;99.90;;;;;;5115818;28;20727;-77
2021/06/26 06:02:04;;;;;;;5.57;5.07;;;19.30;99.90;;;;;;5114555;28;20195;-77
2021/06/26 06:04:30;;;;;;;6.53;4.77;;;19.30;99.90;;;;;;5096119;28;20613;-77
2021/06/26 06:06:55;;;;;;;5.17;4.67;;;19.50;99.90;;;;;;5115312;28;20721;-76
2021/06/26 06:09:21;;;;;;;7.33;4.60;;;19.70;99.90;;;;;;5120863;28;20211;-77
2021/06/26 06:11:46;;;;;;;6.07;4.30;;;20.00;99.90;;;;;;5127912;28;20175;-77
2021/06/26 06:14:12;;;;;;;4.00;3.67;;;20.20;99.90;;;;;;5128135;28;20269;-77
2021/06/26 06:16:37;;;;;;;3.60;3.30;;;20.20;99.90;;;;;;5121288;28;20276;-76
2021/06/26 06:19:03;;;;;;;4.67;3.67;;;20.30;99.90;;;;;;5114410;28;20219;-77
2021/06/26 06:21:29;;;;;;;4.27;3.87;;;20.50;99.90;;;;;;5114436;28;20210;-77
2021/06/26 06:23:54;;;;;;;4.27;3.63;;;20.50;99.90;;;;;;5114420;28;20582;-77
2021/06/26 06:26:20;;;;;;;3.57;3.20;;;20.50;99.90;;;;;;5113969;28;20528;-77
2021/06/26 06:28:45;;;;;;;5.17;3.80;;;20.80;99.90;;;;;;5115746;28;20174;-77
2021/06/26 06:31:11;;;;;;;3.40;3.10;;;21.00;99.90;;;;;;5113661;28;20199;-77
2021/06/26 06:33:36;;;;;;;4.53;3.73;;;20.80;99.90;;;;;;5095722;28;20180;-77
2021/06/26 06:36:06;;;;;;;6.43;3.87;;;20.60;99.90;;;;;;5113619;28;20214;-77
2021/06/26 06:38:32;;;;;;;4.33;3.60;;;20.50;99.90;;;;;;5113801;28;20269;-77
2021/06/26 06:40:58;;;;;;;5.93;3.87;;;20.60;99.90;;;;;;5113524;28;20252;-77
2021/06/26 06:43:24;;;;;;;5.20;3.40;;;20.70;99.90;;;;;;5115226;28;20213;-77
2021/06/26 06:45:49;;;;;;;4.20;3.47;;;20.90;99.90;;;;;;5115207;28;20173;-77
2021/06/26 06:48:15;;;;;;;5.23;3.53;;;20.80;99.90;;;;;;5113490;28;20226;-77
2021/06/26 06:50:40;;;;;;;4.63;4.00;;;21.00;99.90;;;;;;5112725;28;20174;-77
2021/06/26 06:53:07;;;;;;;5.83;3.63;;;21.20;99.90;;;;;;5094963;28;20181;-77
2021/06/26 06:55:32;;;;;;;5.83;4.10;;;21.30;99.90;;;;;;5113850;28;20590;-77
2021/06/26 06:57:58;;;;;;;5.53;3.80;;;21.40;99.90;;;;;;5112849;28;20202;-77
2021/06/26 07:00:23;;;;;;;5.37;4.00;;;21.60;99.90;;;;;;5113368;28;20186;-77
2021/06/26 07:02:49;;;;;;;4.80;4.07;;;21.60;99.90;;;;;;5113195;28;20247;-77
2021/06/26 07:05:14;;;;;;;4.73;3.93;;;21.60;99.90;;;;;;5115842;28;20170;-77
2021/06/26 07:07:40;;;;;;;4.00;3.63;;;21.90;99.90;;;;;;5114614;28;20215;-77
2021/06/26 07:10:06;;;;;;;6.03;4.03;;;21.90;99.90;;;;;;5114211;28;20235;-77
2021/06/26 07:12:32;;;;;;;4.37;3.97;;;22.00;99.90;;;;;;5115932;28;20174;-78
2021/06/26 07:14:58;;;;;;;5.60;3.50;;;22.20;99.90;;;;;;5113729;28;20186;-78
2021/06/26 07:17:23;;;;;;;3.87;3.50;;;22.40;99.90;;;;;;5113701;28;20681;-77
2021/06/26 07:19:49;;;;;;;4.80;3.80;;;22.50;99.90;;;;;;5113167;28;20536;-78
2021/06/26 07:22:15;;;;;;;4.93;3.60;;;22.30;99.90;;;;;;5113688;28;20220;-78
2021/06/26 07:24:40;;;;;;;5.73;3.30;;;22.00;99.90;;;;;;5113625;28;20698;-77
2021/06/26 07:27:06;;;;;;;7.07;3.70;;;21.80;99.90;;;;;;5116814;28;20193;-77
2021/06/26 07:29:32;;;;;;;7.67;3.63;;;22.00;99.90;;;;;;5120659;28;20266;-76
2021/06/26 07:31:57;;;;;;;4.70;3.47;;;22.30;99.90;;;;;;5121765;28;20168;-77
2021/06/26 07:34:23;;;;;;;3.90;3.60;;;21.90;99.90;;;;;;5120929;28;20229;-77
2021/06/26 07:36:49;;;;;;;4.30;3.90;;;22.00;99.90;;;;;;5121983;28;20330;-77
2021/06/26 07:39:14;;;;;;;4.63;3.20;;;21.80;99.90;;;;;;5123670;28;20175;-76
2021/06/26 07:41:40;;;;;;;4.67;4.27;;;21.80;99.90;;;;;;5125609;28;20212;-78
2021/06/26 07:44:05;;;;;;;5.37;4.40;;;21.50;99.90;;;;;;5123892;28;20189;-78
2021/06/26 07:46:31;;;;;;;6.85;4.93;;;21.80;99.90;;;;;;5115869;28;20260;-78
2021/06/26 07:48:56;;;;;;;6.70;4.70;;;22.00;99.90;;;;;;5094912;28;20201;-77
2021/06/26 07:51:22;;;;;;;5.10;4.67;;;22.20;99.90;;;;;;5114797;28;20201;-78
2021/06/26 07:53:47;;;;;;;5.35;4.85;;;22.40;99.90;;;;;;5114853;28;20174;-77
2021/06/26 07:56:13;;;;;;;9.07;7.10;;;22.50;99.90;;;;;;5115630;28;20197;-77
2021/06/26 07:58:38;;;;;;;4.82;4.43;;;22.80;99.90;;;;;;5113664;28;20637;-77
2021/06/26 08:01:04;;;;;;;4.25;3.80;;;22.90;99.90;;;;;;5112759;28;20178;-79
2021/06/26 08:03:29;;;;;;;3.70;2.85;;;22.70;99.90;;;;;;5112471;28;20202;-77
2021/06/26 08:05:56;;;;;;;2.78;2.35;;;22.50;99.90;;;;;;5112947;28;20253;-78
2021/06/26 08:08:22;;;;;;;4.35;2.30;;;22.30;99.90;;;;;;5113265;28;20196;-77
2021/06/26 08:10:48;;;;;;;4.25;2.28;;;22.20;99.90;;;;;;5112119;28;20177;-78
2021/06/26 08:13:14;;;;;;;3.95;2.33;;;22.40;99.90;;;;;;5112584;28;20181;-78
2021/06/26 08:15:40;;;;;;;2.70;2.35;;;22.40;99.90;;;;;;5112298;28;20185;-76
2021/06/26 08:18:07;;;;;;;3.92;2.50;;;22.80;99.90;;;;;;5112699;28;20613;-78
2021/06/26 08:20:34;;;;;;;3.22;2.60;;;23.20;99.90;;;;;;5112185;28;20662;-78
2021/06/26 08:23:00;;;;;;;4.15;2.42;;;23.10;99.90;;;;;;5113233;28;20647;-78
2021/06/26 08:25:28;;;;;;;4.47;2.22;;;23.30;99.90;;;;;;5095612;28;20539;-78
2021/06/26 08:27:54;;;;;;;6.72;3.13;;;23.20;99.90;;;;;;5114606;28;20189;-78
2021/06/26 08:30:20;;;;;;;3.38;2.88;;;23.40;99.90;;;;;;5116181;28;20172;-78
2021/06/26 08:32:46;;;;;;;4.85;2.97;;;23.20;99.90;;;;;;5127816;28;20241;-77
2021/06/26 08:35:13;;;;;;;4.57;2.95;;;23.40;99.90;;;;;;5136775;28;20162;-77
2021/06/26 08:37:39;;;;;;;3.95;2.90;;;23.70;99.90;;;;;;5119322;28;20197;-77
2021/06/26 08:40:07;;;;;;;4.88;3.50;;;23.80;99.90;;;;;;5136970;28;20165;-77
2021/06/26 08:42:33;;;;;;;5.53;3.70;;;24.00;99.90;;;;;;5136378;28;20190;-79
2021/06/26 08:45:06;;;;;;;4.45;4.00;;;24.10;99.90;;;;;;5136755;28;20175;-77
2021/06/26 08:47:31;;;;;;;3.58;3.28;;;24.10;99.90;;;;;;5140537;28;20229;-76
2021/06/26 08:49:57;;;;;;;5.05;4.22;;;23.80;99.90;;;;;;5139980;28;20199;-76
2021/06/26 08:52:22;;;;;;;4.35;3.90;;;23.70;99.90;;;;;;5105753;28;20196;-78
2021/06/26 08:54:53;;;;;;;4.05;3.65;;;23.70;99.90;;;;;;5119561;28;20179;-77
2021/06/26 08:57:35;;;;;;;4.35;3.47;;;23.60;99.90;;;;;;5119409;28;20197;-78
2021/06/26 09:00:04;;;;;;;4.13;3.67;;;23.10;99.90;;;;;;5102631;28;20187;-77
2021/06/26 09:02:30;;;;;;;4.70;4.25;;;22.70;99.90;;;;;;5119072;28;20209;-76
2021/06/26 09:04:56;;;;;;;4.55;4.15;;;22.40;99.90;;;;;;5119156;28;20169;-78
2021/06/26 09:07:28;;;;;;;5.28;4.22;;;22.60;99.90;;;;;;5119489;28;20189;-78
2021/06/26 09:09:56;;;;;;;5.38;4.13;;;23.10;99.90;;;;;;5129038;28;20162;-77
2021/06/26 09:12:23;;;;;;;7.32;4.38;;;23.50;99.90;;;;;;5121826;28;20177;-78
2021/06/26 09:14:48;;;;;;;7.20;4.63;;;24.00;99.90;;;;;;5119915;28;20179;-77
2021/06/26 09:17:17;;;;;;;4.70;4.30;;;24.40;99.90;;;;;;5122216;28;20258;-77
2021/06/26 09:19:54;;;;;;;6.00;4.22;;;24.30;99.90;;;;;;5115083;28;20184;-77
2021/06/26 09:22:20;;;;;;;4.05;3.65;;;24.20;99.90;;;;;;5137252;28;20233;-77
2021/06/26 09:24:48;;;;;;;3.85;2.85;;;24.00;99.90;;;;;;5133878;28;20181;-77
2021/06/26 09:27:19;;;;;;;3.92;3.17;;;23.60;99.90;;;;;;5119622;28;20674;-76
2021/06/26 09:29:50;;;;;;;3.60;3.30;;;23.30;99.90;;;;;;5122990;28;20564;-78
2021/06/26 09:32:27;;;;;;;4.60;3.50;;;23.00;99.90;;;;;;5117824;28;20728;-77
2021/06/26 09:34:54;;;;;;;2.95;2.67;;;22.90;99.90;;;;;;5118099;28;20265;-77
2021/06/26 09:37:34;;;;;;;4.25;2.70;;;23.10;99.90;;;;;;5115873;28;20189;-77
2021/06/26 09:40:01;;;;;;;3.10;2.85;;;23.30;99.90;;;;;;5116880;28;20177;-77
2021/06/26 09:42:28;;;;;;;4.65;3.08;;;23.40;99.90;;;;;;5114711;28;20422;-78
2021/06/26 09:44:53;;;;;;;4.53;3.60;;;23.60;99.90;;;;;;5115926;28;20178;-77
2021/06/26 09:47:36;;;;;;;4.70;4.20;;;23.90;99.90;;;;;;5115383;28;20227;-79
2021/06/26 09:50:23;;;;;;;5.65;4.40;;;23.90;99.90;;;;;;5115543;28;20266;-77
2021/06/26 09:52:57;;;;;;;4.05;3.60;;;23.80;99.90;;;;;;5117080;28;20199;-78
2021/06/26 09:55:22;;;;;;;5.10;3.85;;;24.20;99.90;;;;;;5116886;28;20210;-77
2021/06/26 09:57:49;;;;;;;4.32;3.40;;;24.60;99.90;;;;;;5114507;28;20197;-77
2021/06/26 10:00:17;;;;;;;3.33;3.03;;;24.50;99.90;;;;;;5097831;28;20181;-78
2021/06/26 10:02:44;;;;;;;3.65;3.25;;;24.40;99.90;;;;;;5119656;28;20680;-77
2021/06/26 10:05:11;;;;;;;3.80;3.13;;;24.50;99.90;;;;;;5096943;28;20178;-78
2021/06/26 10:07:39;;;;;;;7.88;3.72;;;24.60;99.90;;;;;;5116347;28;20209;-78
2021/06/26 10:10:05;;;;;;;6.28;4.32;;;24.30;99.90;;;;;;5116446;28;20170;-78
2021/06/26 10:12:31;;;;;;;4.57;4.15;;;24.30;99.90;;;;;;5116124;28;20183;-77
2021/06/26 10:14:56;;;;;;;4.40;4.00;;;23.90;99.90;;;;;;5113341;28;20202;-77
2021/06/26 10:17:22;;;;;;;4.38;3.97;;;24.00;99.90;;;;;;5115291;28;20556;-77
2021/06/26 10:19:49;;;;;;;4.88;4.40;;;23.70;99.90;;;;;;5117475;28;20177;-77
2021/06/26 10:22:15;;;;;;;4.80;3.40;;;23.30;99.90;;;;;;5099944;28;20584;-78
2021/06/26 10:24:44;;;;;;;4.20;3.80;;;23.30;99.90;;;;;;5118372;28;20174;-78
2021/06/26 10:27:22;;;;;;;5.28;3.88;;;22.70;99.90;;;;;;5118311;28;20280;-77
2021/06/26 10:29:48;;;;;;;6.22;4.03;;;22.90;99.90;;;;;;5117994;28;20162;-78
2021/06/26 10:32:16;;;;;;;5.32;3.30;;;23.50;99.90;;;;;;5119180;28;20221;-77
2021/06/26 10:34:50;;;;;;;4.43;4.03;;;23.80;99.90;;;;;;5120100;28;20167;-78
2021/06/26 10:37:21;;;;;;;3.78;3.47;;;23.30;99.90;;;;;;5118980;28;20189;-77
2021/06/26 10:39:47;;;;;;;6.30;3.55;;;23.90;99.90;;;;;;5119900;28;20540;-77
2021/06/26 10:42:17;;;;;;;4.10;3.40;;;24.30;99.90;;;;;;5117734;28;20209;-77
2021/06/26 10:44:50;;;;;;;4.32;3.50;;;24.40;99.90;;;;;;5120662;28;20224;-77
2021/06/26 10:47:37;;;;;;;3.80;3.50;;;24.20;99.90;;;;;;5121702;28;20576;-77
2021/06/26 10:50:43;;;;;;;6.53;3.85;;;24.20;99.90;;;;;;5119063;28;20169;-78
2021/06/26 10:53:09;;;;;;;3.92;3.47;;;24.60;99.90;;;;;;5111630;28;20676;-78
2021/06/26 10:55:37;;;;;;;5.53;4.50;;;24.50;99.90;;;;;;5114737;28;20254;-77
2021/06/26 10:58:05;;;;;;;4.75;4.03;;;24.60;99.90;;;;;;5114282;28;20201;-77
2021/06/26 11:00:34;;;;;;;7.18;3.78;;;24.40;99.90;;;;;;5115792;28;20262;-77
2021/06/26 11:03:01;;;;;;;4.22;3.83;;;24.70;99.90;;;;;;5116198;28;20562;-78
2021/06/26 11:05:29;;;;;;;5.35;3.92;;;24.50;99.90;;;;;;5116499;28;20639;-78
2021/06/26 11:07:54;;;;;;;4.90;4.03;;;24.60;99.90;;;;;;5116355;28;20325;-78
2021/06/26 11:10:20;;;;;;;3.88;3.25;;;24.60;99.90;;;;;;5114581;28;20200;-78
2021/06/26 11:12:47;;;;;;;3.70;3.35;;;25.10;99.90;;;;;;5115818;28;20258;-78
2021/06/26 11:15:14;;;;;;;4.28;3.90;;;25.00;99.90;;;;;;5116931;28;20575;-77
2021/06/26 11:17:41;;;;;;;5.25;3.75;;;25.30;99.90;;;;;;5115861;28;20190;-77
2021/06/26 11:20:11;;;;;;;4.25;3.85;;;25.50;99.90;;;;;;5115888;28;20647;-78
2021/06/26 11:22:37;;;;;;;3.60;3.30;;;25.90;99.90;;;;;;5115117;28;20195;-78
2021/06/26 11:25:10;;;;;;;4.18;3.88;;;26.00;99.90;;;;;;5116136;28;20183;-78
2021/06/26 11:27:35;;;;;;;5.53;3.88;;;26.00;99.90;;;;;;5099408;28;20290;-78
2021/06/26 11:30:05;;;;;;;4.00;3.20;;;25.70;99.90;;;;;;5098936;28;20656;-78
2021/06/26 11:32:32;;;;;;;3.70;2.67;;;25.90;99.90;;;;;;5101110;28;20164;-78
2021/06/26 11:35:13;;;;;;;3.10;2.83;;;26.20;99.90;;;;;;5124945;28;20167;-79
2021/06/26 11:37:45;;;;;;;4.82;3.38;;;26.00;99.90;;;;;;5120452;28;20222;-78
2021/06/26 11:40:14;;;;;;;3.58;3.10;;;25.90;99.90;;;;;;5102146;28;20194;-77
2021/06/26 11:42:49;;;;;;;3.50;3.10;;;25.50;99.90;;;;;;5119038;28;20207;-78
2021/06/26 11:45:20;;;;;;;2.65;2.45;;;25.30;99.90;;;;;;5113960;28;20285;-77
2021/06/26 11:47:45;;;;;;;3.33;3.00;;;25.50;99.90;;;;;;5131258;22;20227;-72
2021/06/26 11:50:19;;;;;;;3.00;2.40;;;25.60;99.90;;;;;;5111085;28;20256;-71
2021/06/26 11:52:45;;;;;;;2.95;2.58;;;25.30;99.90;;;;;;5110088;28;20631;-72
2021/06/26 11:55:11;;;;;;;4.05;2.67;;;24.60;99.90;;;;;;5110664;28;20274;-72
2021/06/26 11:57:37;;;;;;;2.53;2.33;;;24.80;99.90;;;;;;5093110;28;20199;-72
2021/06/26 12:00:05;;;;;;;2.70;2.50;;;24.80;99.90;;;;;;5110942;28;20224;-72
2021/06/26 12:02:34;;;;;;;3.30;2.38;;;24.60;99.90;;;;;;5110967;28;20244;-72
2021/06/26 12:05:03;;;;;;;2.65;2.20;;;25.20;99.90;;;;;;5111357;28;20341;-71
2021/06/26 12:07:37;;;;;;;2.53;2.33;;;25.10;99.90;;;;;;5111035;28;20187;-71
2021/06/26 12:10:05;;;;;;;3.40;2.53;;;25.10;99.90;;;;;;5111488;28;20503;-71
2021/06/26 12:12:36;;;;;;;4.60;2.80;;;25.10;99.90;;;;;;5110745;28;20263;-72
2021/06/26 12:15:03;;;;;;;4.18;2.88;;;25.20;99.90;;;;;;5110932;28;20228;-72
2021/06/26 12:17:28;;;;;;;2.58;2.38;;;25.80;99.90;;;;;;5111152;28;20774;-72
2021/06/26 12:20:09;;;;;;;3.60;2.33;;;25.70;99.90;;;;;;5110851;28;20245;-72
2021/06/26 12:22:35;;;;;;;3.20;2.20;;;26.20;99.90;;;;;;5114509;28;20256;-73
2021/06/26 12:25:11;;;;;;;2.88;2.58;;;26.50;99.90;;;;;;5114168;28;20168;-72
2021/06/26 12:27:38;;;;;;;3.20;2.22;;;26.70;99.90;;;;;;5114729;28;20191;-72
2021/06/26 12:30:15;;;;;;;3.83;2.80;;;26.40;99.90;;;;;;5114728;28;20179;-71
2021/06/26 12:32:42;;;;;;;2.67;2.47;;;25.50;99.90;;;;;;5114950;28;20179;-72
2021/06/26 12:35:09;;;;;;;4.57;2.65;;;25.50;99.90;;;;;;5115213;28;20182;-72
2021/06/26 12:37:38;;;;;;;2.83;2.63;;;25.40;99.90;;;;;;5114757;28;20191;-72
2021/06/26 12:40:12;;;;;;;2.80;2.10;;;25.40;99.90;;;;;;5096496;28;20176;-72